Time;durP1;ratioP1;P1;durP2;ratioP2;P2;SDS_P1;SDS_P2;PMS_P1;PMS_P2;Temp;Humidity;BMP_temperature;BMP_pressure;BME280_temperature;BME280_humidity;BME280_pressure;Samples;Min_cycle;Max_cycle;Signal;HPM_P1;HPM_P2
2021/03/31 00:02:14;;;;;;;8.50;4.33;;;9.50;1.00;;;12.68;59.79;99068.31;5024769;28;20244;-71
2021/03/31 00:04:41;;;;;;;9.87;4.03;;;9.50;1.00;;;12.69;59.88;99059.25;5035932;28;20594;-70
2021/03/31 00:07:10;;;;;;;9.97;4.10;;;9.40;1.00;;;12.68;59.52;99062.13;5031498;28;20588;-71
2021/03/31 00:09:37;;;;;;;8.03;3.80;;;9.40;1.00;;;12.59;59.44;99054.19;5028274;28;20213;-71
2021/03/31 00:12:04;;;;;;;7.10;3.47;;;9.30;1.00;;;12.56;59.71;99059.09;5036108;28;20202;-71
2021/03/31 00:14:31;;;;;;;7.67;3.57;;;9.30;1.00;;;12.59;59.35;99061.41;5041042;28;20289;-68
2021/03/31 00:16:57;;;;;;;8.37;3.83;;;9.20;1.00;;;12.40;61.41;99051.28;5032786;28;20285;-69
2021/03/31 00:19:24;;;;;;;8.77;3.93;;;9.00;1.00;;;12.27;62.02;99057.28;5032408;28;20210;-69
2021/03/31 00:21:51;;;;;;;8.33;3.50;;;9.00;1.00;;;12.20;62.28;99055.53;5028403;28;20201;-69
2021/03/31 00:24:18;;;;;;;6.53;3.87;;;9.00;1.00;;;12.31;61.45;99054.25;5033060;28;20207;-69
2021/03/31 00:26:44;;;;;;;7.33;3.60;;;9.00;1.00;;;12.28;61.17;99047.44;5037601;28;20256;-69
2021/03/31 00:29:11;;;;;;;7.13;3.53;;;8.90;1.00;;;12.12;62.15;99050.31;5031559;28;20223;-70
2021/03/31 00:31:37;;;;;;;9.33;4.07;;;8.90;1.00;;;12.13;62.38;99039.41;5034744;28;20197;-70
2021/03/31 00:34:04;;;;;;;10.00;4.17;;;8.80;1.00;;;12.02;63.79;99047.91;5040894;28;20214;-69
2021/03/31 00:36:30;;;;;;;7.53;3.83;;;8.80;1.00;;;12.05;63.39;99040.53;5028145;28;20209;-70
2021/03/31 00:38:57;;;;;;;9.33;3.67;;;8.70;1.00;;;11.96;63.44;99036.28;5031554;28;20667;-69
2021/03/31 00:41:24;;;;;;;6.53;3.77;;;8.60;1.00;;;11.91;64.09;99039.50;5045533;28;20215;-69
2021/03/31 00:43:50;;;;;;;9.10;4.30;;;8.60;1.00;;;11.84;65.41;99046.59;5036030;28;20810;-69
2021/03/31 00:46:17;;;;;;;10.83;3.30;;;8.60;1.00;;;11.85;65.25;99037.56;5028571;28;20200;-70
2021/03/31 00:48:43;;;;;;;6.80;3.30;;;8.50;1.00;;;11.70;67.13;99033.22;5023483;28;20232;-69
2021/03/31 00:51:10;;;;;;;8.73;3.77;;;8.40;1.00;;;11.68;67.85;99035.22;5039514;28;20241;-70
2021/03/31 00:53:44;;;;;;;8.63;3.63;;;8.40;1.00;;;11.60;68.63;99038.00;5041936;28;20202;-71
2021/03/31 00:56:12;;;;;;;7.07;3.73;;;8.40;1.00;;;11.68;68.28;99037.91;5046976;28;20289;-71
2021/03/31 00:58:39;;;;;;;6.33;3.37;;;8.40;1.00;;;11.71;67.60;99035.69;5028685;28;20266;-69
2021/03/31 01:01:06;;;;;;;7.73;3.67;;;8.40;1.00;;;11.70;66.34;99038.56;5039329;28;20685;-70
2021/03/31 01:03:33;;;;;;;7.87;4.10;;;8.30;1.00;;;11.64;67.27;99037.44;5040735;28;20211;-70
2021/03/31 01:06:00;;;;;;;6.63;3.57;;;8.30;1.00;;;11.58;68.51;99027.47;5034652;28;20211;-70
2021/03/31 01:08:26;;;;;;;9.30;3.57;;;8.20;1.00;;;11.55;68.76;99033.16;5024100;28;20245;-69
2021/03/31 01:10:57;;;;;;;7.20;3.57;;;8.20;1.00;;;11.49;69.25;99032.06;5036142;28;20601;-70
2021/03/31 01:13:48;;;;;;;8.67;3.67;;;8.10;1.00;;;11.38;69.94;99031.66;5037638;28;20269;-69
2021/03/31 01:16:30;;;;;;;9.57;3.90;;;8.10;1.00;;;11.37;69.84;99027.34;5038539;28;20372;-70
2021/03/31 01:19:00;;;;;;;6.77;3.60;;;8.10;1.00;;;11.42;69.26;99022.28;5047743;28;20291;-70
2021/03/31 01:22:09;;;;;;;7.90;3.50;;;8.00;1.00;;;11.31;70.34;99022.72;5037233;28;20210;-70
2021/03/31 01:25:08;;;;;;;7.67;3.73;;;8.00;1.00;;;11.33;71.28;99021.53;5032758;28;20238;-70
2021/03/31 01:28:17;;;;;;;11.10;4.27;;;7.90;1.00;;;11.25;71.46;99013.56;5040636;28;20222;-70
2021/03/31 01:31:00;;;;;;;9.27;3.83;;;8.00;1.00;;;11.22;71.59;99013.09;5028210;28;20342;-70
2021/03/31 01:34:35;;;;;;;8.53;4.07;;;7.90;1.00;;;11.24;71.33;99016.41;5043629;28;20197;-69
2021/03/31 01:37:09;;;;;;;7.43;3.57;;;7.80;1.00;;;11.06;72.58;99014.06;5023682;28;20230;-70
2021/03/31 01:39:38;;;;;;;7.30;3.60;;;7.80;1.00;;;11.10;72.70;99003.84;5029817;28;20679;-70
2021/03/31 01:42:08;;;;;;;7.70;3.37;;;7.80;1.00;;;11.10;72.51;99003.84;5035672;28;20261;-70
2021/03/31 01:44:35;;;;;;;7.67;3.90;;;7.80;1.00;;;11.05;73.02;99000.88;5036033;28;20252;-70
2021/03/31 01:47:03;;;;;;;6.83;3.50;;;7.70;1.00;;;10.95;73.98;98994.97;5041958;28;20234;-70
2021/03/31 01:49:31;;;;;;;9.43;3.90;;;7.70;1.00;;;11.02;73.67;98986.03;5044522;28;20218;-71
2021/03/31 01:52:03;;;;;;;6.53;3.50;;;7.70;1.00;;;10.97;74.27;98985.75;5032105;28;20600;-71
2021/03/31 01:54:31;;;;;;;10.23;4.03;;;7.70;1.00;;;10.97;74.18;98980.41;5047799;28;20293;-71
2021/03/31 01:56:59;;;;;;;7.30;4.07;;;7.60;1.00;;;10.97;74.57;98982.25;5046194;28;20224;-70
2021/03/31 01:59:26;;;;;;;10.97;4.20;;;7.60;1.00;;;10.81;75.97;98983.22;5037825;28;20198;-70
2021/03/31 02:01:54;;;;;;;8.13;4.20;;;7.60;1.00;;;10.97;75.20;98985.75;5044190;28;20254;-71
2021/03/31 02:04:22;;;;;;;10.43;4.00;;;7.60;1.00;;;10.88;75.34;98980.66;5043007;28;20279;-70
2021/03/31 02:06:50;;;;;;;11.47;4.47;;;7.50;1.00;;;10.76;76.95;98982.91;5038584;28;20228;-70
2021/03/31 02:09:19;;;;;;;10.67;4.30;;;7.50;1.00;;;10.79;76.87;98981.72;5048949;28;20206;-71
2021/03/31 02:11:46;;;;;;;9.17;4.37;;;7.40;1.00;;;10.78;78.14;98970.22;5034049;28;20283;-70
2021/03/31 02:14:15;;;;;;;8.10;4.27;;;7.40;1.00;;;10.75;78.18;98970.56;5034186;28;20198;-70
2021/03/31 02:16:44;;;;;;;9.77;3.73;;;7.40;1.00;;;10.83;76.80;98972.34;5042549;28;20352;-70
2021/03/31 02:19:14;;;;;;;12.67;4.50;;;7.40;1.00;;;10.71;78.36;98966.59;5040615;28;20597;-70
2021/03/31 02:21:42;;;;;;;11.80;4.23;;;7.30;1.00;;;10.61;79.06;98966.00;5037101;28;20210;-70
2021/03/31 02:24:13;;;;;;;7.93;4.07;;;7.30;1.00;;;10.61;78.63;98963.34;5041132;28;20207;-70
2021/03/31 02:26:41;;;;;;;11.27;4.90;;;7.30;1.00;;;10.56;78.26;98965.69;5046247;28;20685;-70
2021/03/31 02:29:09;;;;;;;8.77;4.83;;;7.20;1.00;;;10.56;78.45;98967.56;5023195;28;20298;-70
2021/03/31 02:31:37;;;;;;;9.10;4.00;;;7.20;1.00;;;10.50;79.13;98958.41;5037982;28;20680;-70
2021/03/31 02:34:06;;;;;;;10.83;4.93;;;7.20;1.00;;;10.49;78.76;98966.59;5046721;28;20303;-70
2021/03/31 02:36:33;;;;;;;9.47;4.40;;;7.10;1.00;;;10.44;79.66;98961.78;5043332;28;20210;-70
2021/03/31 02:39:01;;;;;;;11.70;4.70;;;7.10;1.00;;;10.50;78.53;98965.59;5032253;28;20202;-70
2021/03/31 02:41:29;;;;;;;11.57;4.33;;;7.10;1.00;;;10.42;78.82;98957.63;5043814;28;20251;-70
2021/03/31 02:43:59;;;;;;;13.83;4.73;;;7.00;1.00;;;10.38;78.73;98944.84;5032912;28;20284;-70
2021/03/31 02:46:27;;;;;;;8.20;4.73;;;7.00;1.00;;;10.38;80.01;98951.00;5037725;28;20666;-70
2021/03/31 02:48:55;;;;;;;10.37;4.50;;;6.90;1.00;;;10.43;78.87;98947.81;5039037;28;20217;-70
2021/03/31 02:51:22;;;;;;;10.87;4.63;;;6.90;1.00;;;10.40;78.42;98949.00;5045882;28;20202;-70
2021/03/31 02:53:50;;;;;;;10.53;5.10;;;6.90;1.00;;;10.27;80.50;98944.22;5037925;28;20202;-71
2021/03/31 02:56:18;;;;;;;13.63;4.13;;;6.90;1.00;;;10.31;80.05;98939.38;5046883;28;20214;-70
2021/03/31 02:58:46;;;;;;;9.27;4.20;;;6.90;1.00;;;10.23;80.67;98942.91;5033174;28;20222;-70
2021/03/31 03:01:14;;;;;;;9.47;4.20;;;6.80;1.00;;;10.26;80.20;98947.06;5036516;28;20201;-70
2021/03/31 03:03:42;;;;;;;7.80;3.87;;;6.90;1.00;;;10.30;79.33;98951.06;5043050;28;20202;-70
2021/03/31 03:06:08;;;;;;;9.37;4.60;;;6.80;1.00;;;10.17;81.10;98944.66;5043670;28;20213;-70
2021/03/31 03:08:35;;;;;;;8.77;4.37;;;6.70;1.00;;;10.19;82.08;98946.94;5039595;28;20580;-70
2021/03/31 03:11:03;;;;;;;12.37;4.90;;;6.80;1.00;;;10.18;81.28;98944.44;5041475;28;20205;-71
2021/03/31 03:13:31;;;;;;;8.23;4.27;;;6.80;1.00;;;10.18;81.39;98942.63;5037562;28;20595;-70
2021/03/31 03:15:59;;;;;;;9.53;4.47;;;6.80;1.00;;;10.12;83.03;98947.00;5033597;28;20206;-69
2021/03/31 03:18:27;;;;;;;9.63;4.07;;;6.80;1.00;;;10.20;82.18;98943.25;5045457;28;20221;-69
2021/03/31 03:20:53;;;;;;;8.87;4.30;;;6.80;1.00;;;10.18;82.31;98939.09;5044523;28;20198;-70
2021/03/31 03:23:20;;;;;;;7.40;3.80;;;6.70;1.00;;;10.10;83.58;98942.66;5048328;28;20558;-70
2021/03/31 03:25:48;;;;;;;10.97;4.20;;;6.70;1.00;;;10.09;83.59;98938.31;5044446;28;20626;-70
2021/03/31 03:28:19;;;;;;;10.57;5.30;;;6.70;1.00;;;9.93;86.21;98938.38;5028522;28;20634;-70
2021/03/31 03:30:47;;;;;;;6.77;3.67;;;6.70;1.00;;;10.07;84.97;98936.84;5037461;28;20658;-70
2021/03/31 03:33:14;;;;;;;10.73;4.77;;;6.70;1.00;;;10.08;85.45;98939.34;5040517;28;20211;-70
2021/03/31 03:35:43;;;;;;;8.00;3.90;;;6.70;1.00;;;10.07;86.21;98940.34;5042945;28;20209;-70
2021/03/31 03:38:10;;;;;;;8.13;3.67;;;6.70;1.00;;;10.09;85.85;98935.66;5043749;28;20877;-71
2021/03/31 03:40:37;;;;;;;10.10;4.20;;;6.70;1.00;;;10.04;87.00;98935.34;5051050;28;20296;-70
2021/03/31 03:43:04;;;;;;;10.80;4.30;;;6.60;1.00;;;10.02;86.94;98933.84;5031970;28;20615;-70
2021/03/31 03:45:32;;;;;;;7.77;3.70;;;6.60;1.00;;;9.91;89.09;98929.75;5045125;28;20202;-71
2021/03/31 03:47:59;;;;;;;9.43;4.07;;;6.60;1.00;;;9.90;88.74;98932.56;5037409;28;20229;-70
2021/03/31 03:50:27;;;;;;;9.67;4.40;;;6.60;1.00;;;9.98;88.43;98933.34;5043766;28;20615;-71
2021/03/31 03:52:54;;;;;;;9.83;4.63;;;6.60;1.00;;;9.94;89.00;98926.72;5046800;28;20208;-70
2021/03/31 03:55:23;;;;;;;9.20;4.77;;;6.60;1.00;;;9.90;88.83;98922.72;5042659;28;20200;-70
2021/03/31 03:57:50;;;;;;;8.87;4.37;;;6.50;1.00;;;9.86;89.77;98929.44;5031814;28;20225;-70
2021/03/31 04:00:21;;;;;;;8.83;4.50;;;6.50;1.00;;;9.89;89.41;98930.91;5037411;28;20202;-70
2021/03/31 04:02:51;;;;;;;7.17;4.07;;;6.40;1.00;;;9.85;90.21;98933.06;5037938;28;20615;-70
2021/03/31 04:05:18;;;;;;;8.33;4.57;;;6.40;1.00;;;9.81;89.68;98941.59;5043200;28;20204;-70
2021/03/31 04:07:44;;;;;;;9.13;4.73;;;6.30;1.00;;;9.79;89.56;98939.09;5039096;28;20242;-70
2021/03/31 04:10:12;;;;;;;7.43;4.10;;;6.30;1.00;;;9.80;88.83;98938.09;5046200;28;20208;-71
2021/03/31 04:12:41;;;;;;;9.83;4.47;;;6.40;1.00;;;9.84;88.87;98935.94;5048077;28;20211;-70
2021/03/31 04:15:10;;;;;;;10.83;4.50;;;6.40;1.00;;;9.90;88.03;98943.25;5038077;28;20782;-70
2021/03/31 04:17:39;;;;;;;7.40;4.03;;;6.40;1.00;;;9.92;87.81;98933.22;5033697;28;20229;-70
2021/03/31 04:20:10;;;;;;;10.73;4.60;;;6.40;1.00;;;9.83;88.40;98934.25;5042055;28;20212;-70
2021/03/31 04:22:37;;;;;;;10.87;4.07;;;6.40;1.00;;;9.82;88.66;98937.94;5040184;28;20198;-70
2021/03/31 04:25:06;;;;;;;10.20;4.87;;;6.40;1.00;;;9.88;87.91;98939.91;5045394;28;20260;-71
2021/03/31 04:27:35;;;;;;;10.13;4.53;;;6.40;1.00;;;9.82;89.23;98938.78;5040893;28;20232;-71
2021/03/31 04:30:04;;;;;;;11.33;4.60;;;6.40;1.00;;;9.84;88.64;98935.94;5038088;28;20655;-70
2021/03/31 04:32:31;;;;;;;10.13;4.70;;;6.20;1.00;;;9.82;88.93;98944.09;5033998;28;20203;-70
2021/03/31 04:35:00;;;;;;;10.03;4.60;;;6.40;1.00;;;9.85;88.67;98943.75;5040531;28;20206;-70
2021/03/31 04:37:27;;;;;;;13.67;4.30;;;6.40;1.00;;;9.92;88.41;98942.06;5042663;28;20217;-70
2021/03/31 04:39:53;;;;;;;12.37;4.70;;;6.40;1.00;;;9.93;88.08;98943.72;5047987;28;20265;-70
2021/03/31 04:42:20;;;;;;;8.67;4.30;;;6.40;1.00;;;9.96;88.16;98934.53;5044715;28;20197;-70
2021/03/31 04:44:47;;;;;;;11.83;4.47;;;6.30;1.00;;;9.86;90.21;98942.75;5035511;28;20251;-71
2021/03/31 04:47:13;;;;;;;8.30;4.23;;;6.30;1.00;;;9.74;92.77;98940.66;5035751;28;20306;-71
2021/03/31 04:49:40;;;;;;;12.87;5.27;;;6.30;1.00;;;9.77;93.27;98943.78;5047684;28;20614;-70
2021/03/31 04:52:07;;;;;;;10.23;4.20;;;6.40;1.00;;;9.82;91.87;98948.59;5049371;28;20208;-70
2021/03/31 04:54:33;;;;;;;13.33;4.37;;;6.40;1.00;;;9.75;93.35;98942.31;5046775;28;20224;-69
2021/03/31 04:57:00;;;;;;;8.97;4.07;;;6.40;1.00;;;9.91;92.29;98947.56;5043417;28;20229;-71
2021/03/31 04:59:26;;;;;;;10.83;4.10;;;6.50;1.00;;;10.02;90.90;98944.50;5047244;28;20639;-69
2021/03/31 05:01:53;;;;;;;8.40;3.63;;;6.40;1.00;;;10.00;91.44;98938.53;5035183;28;20199;-72
2021/03/31 05:04:20;;;;;;;8.63;3.80;;;6.50;1.00;;;9.91;92.74;98942.22;5052063;28;20262;-70
2021/03/31 05:06:46;;;;;;;9.57;3.93;;;6.50;1.00;;;9.90;93.07;98946.72;5052960;28;20261;-70
2021/03/31 05:09:13;;;;;;;8.10;4.20;;;6.40;1.00;;;9.94;92.41;98939.22;5044216;28;20268;-70
2021/03/31 05:11:39;;;;;;;7.03;3.90;;;6.40;1.00;;;9.99;92.23;98935.00;5043093;28;20205;-70
2021/03/31 05:14:07;;;;;;;11.30;4.23;;;6.40;1.00;;;9.95;92.16;98936.38;5035817;28;20210;-70
2021/03/31 05:16:33;;;;;;;7.00;3.67;;;6.40;1.00;;;9.96;93.10;98947.88;5041717;28;20220;-71
2021/03/31 05:19:00;;;;;;;9.57;4.27;;;6.40;1.00;;;9.86;94.76;98944.59;5044390;28;20210;-70
2021/03/31 05:21:27;;;;;;;7.53;3.93;;;6.40;1.00;;;9.95;94.78;98946.22;5051369;28;20202;-71
2021/03/31 05:23:53;;;;;;;13.27;4.23;;;6.40;1.00;;;9.96;95.12;98940.72;5038950;28;20206;-70
2021/03/31 05:26:20;;;;;;;9.47;3.90;;;6.50;1.00;;;10.03;94.80;98936.34;5040730;28;20212;-70
2021/03/31 05:28:46;;;;;;;8.10;4.67;;;6.60;1.00;;;10.09;93.37;98932.19;5037239;28;20581;-70
2021/03/31 05:31:13;;;;;;;9.43;3.93;;;6.60;1.00;;;10.20;92.51;98934.44;5040963;28;20233;-72
2021/03/31 05:33:39;;;;;;;7.73;3.83;;;6.60;1.00;;;10.28;92.17;98927.22;5040798;28;20212;-70
2021/03/31 05:36:08;;;;;;;7.20;3.50;;;6.70;1.00;;;10.36;91.51;98927.16;5047242;28;20202;-70
2021/03/31 05:38:35;;;;;;;12.83;4.37;;;6.70;1.00;;;10.36;91.27;98921.81;5042627;28;20313;-71
2021/03/31 05:41:02;;;;;;;13.00;3.70;;;6.70;1.00;;;10.35;92.06;98919.34;5050404;28;20352;-71
2021/03/31 05:43:29;;;;;;;9.17;4.63;;;6.70;1.00;;;10.37;92.79;98922.66;5047284;28;20206;-73
2021/03/31 05:45:56;;;;;;;10.73;4.63;;;6.70;1.00;;;10.41;91.81;98926.63;5029637;28;20704;-72
2021/03/31 05:48:23;;;;;;;13.20;4.53;;;6.80;1.00;;;10.51;91.30;98920.03;5032977;28;20642;-72
2021/03/31 05:50:49;;;;;;;9.33;4.87;;;6.80;1.00;;;10.61;90.42;98915.28;5036342;28;20202;-73
2021/03/31 05:53:17;;;;;;;11.90;4.93;;;6.90;1.00;;;10.67;89.83;98913.75;5046463;28;20301;-71
2021/03/31 05:55:44;;;;;;;11.30;4.00;;;6.90;1.00;;;10.73;89.74;98916.53;5040181;28;20202;-73
2021/03/31 05:58:10;;;;;;;15.27;4.27;;;7.00;1.00;;;10.80;89.07;98912.13;5036784;28;20330;-72
2021/03/31 06:00:37;;;;;;;9.87;4.57;;;7.10;1.00;;;10.83;89.17;98900.25;5040249;28;20247;-72
2021/03/31 06:03:06;;;;;;;11.30;5.17;;;7.10;1.00;;;10.94;87.74;98907.81;5044360;28;20282;-72
2021/03/31 06:05:33;;;;;;;10.50;4.37;;;7.20;1.00;;;11.06;86.91;98907.22;5042645;28;20209;-72
2021/03/31 06:07:59;;;;;;;10.07;4.80;;;7.30;1.00;;;11.13;85.91;98900.16;5046545;28;20230;-72
2021/03/31 06:10:28;;;;;;;16.17;5.73;;;7.40;1.00;;;11.24;84.77;98899.69;5037422;28;20196;-72
2021/03/31 06:12:59;;;;;;;16.33;4.83;;;7.50;1.00;;;11.30;84.17;98903.44;5033600;28;20192;-71
2021/03/31 06:15:33;;;;;;;11.67;5.07;;;7.60;1.00;;;11.45;83.23;98904.28;5043863;28;20264;-72
2021/03/31 06:18:10;;;;;;;9.70;4.80;;;7.80;1.00;;;11.64;82.02;98908.31;5041805;28;20222;-72
2021/03/31 06:20:43;;;;;;;14.53;4.80;;;8.00;1.00;;;11.86;79.78;98896.63;5049498;28;20202;-71
2021/03/31 06:25:57;;;;;;;9.93;5.07;;;8.20;1.00;;;12.26;77.18;98909.47;5012441;28;20256;-72
2021/03/31 06:28:36;;;;;;;12.33;5.17;;;8.30;1.00;;;12.31;76.74;98907.84;5043469;28;20231;-75
2021/03/31 06:31:11;;;;;;;14.83;5.07;;;8.50;1.00;;;12.46;75.23;98899.78;5053079;28;20639;-81
2021/03/31 06:33:40;;;;;;;15.73;5.50;;;8.60;1.00;;;12.44;74.94;98903.47;5037826;28;20199;-76
2021/03/31 06:36:10;;;;;;;13.10;5.55;;;8.70;1.00;;;12.68;73.25;98915.66;5043968;28;20453;-77
2021/03/31 06:38:39;;;;;;;11.70;5.23;;;8.90;1.00;;;12.84;70.52;98912.72;5040364;28;20304;-71
2021/03/31 06:41:26;;;;;;;11.03;4.80;;;9.10;1.00;;;13.00;69.44;98919.66;5031964;28;20234;-71
2021/03/31 06:44:03;;;;;;;11.33;5.10;;;9.30;1.00;;;12.97;69.07;98920.06;5039203;28;20216;-79
2021/03/31 06:46:37;;;;;;;12.47;4.43;;;9.20;1.00;;;13.08;68.71;98911.50;5038421;28;20196;-70
2021/03/31 06:49:04;;;;;;;14.07;5.37;;;9.30;1.00;;;13.06;67.28;98918.91;5037902;28;20227;-71
2021/03/31 06:51:32;;;;;;;15.97;5.30;;;9.30;1.00;;;13.21;65.22;98917.78;5051798;28;20543;-75
2021/03/31 06:54:13;;;;;;;15.33;5.07;;;9.40;1.00;;;13.14;64.57;98924.09;5048024;28;20202;-76
2021/03/31 06:56:41;;;;;;;12.73;5.53;;;9.40;1.00;;;13.24;64.06;98921.91;5039600;28;20742;-72
2021/03/31 06:59:07;;;;;;;11.43;5.50;;;9.50;1.00;;;13.26;64.36;98922.53;5044916;28;20211;-72
2021/03/31 07:01:34;;;;;;;10.50;5.80;;;9.50;1.00;;;13.39;62.87;98923.47;5053618;28;20206;-72
2021/03/31 07:04:05;;;;;;;12.43;4.97;;;9.60;1.00;;;13.46;62.45;98918.97;5036735;28;20196;-73
2021/03/31 07:06:32;;;;;;;11.63;5.00;;;9.70;1.00;;;13.64;61.72;98921.97;5044987;28;20208;-72
2021/03/31 07:08:59;;;;;;;16.27;5.83;;;9.70;1.00;;;13.76;61.79;98923.06;5043905;28;20696;-72
2021/03/31 07:11:40;;;;;;;11.27;5.47;;;9.80;1.00;;;13.83;61.19;98921.22;5033714;28;20292;-76
2021/03/31 07:14:10;;;;;;;15.53;5.20;;;9.90;1.00;;;13.94;62.17;98919.84;5042057;28;20236;-77
2021/03/31 07:16:38;;;;;;;20.73;5.60;;;10.10;1.00;;;14.11;62.57;98922.00;5042950;28;20243;-72
2021/03/31 07:19:07;;;;;;;18.97;5.60;;;10.20;1.00;;;14.14;62.28;98915.41;5044093;28;20268;-74
2021/03/31 07:21:33;;;;;;;16.73;6.23;;;10.30;1.00;;;14.19;63.00;98907.56;5042872;28;20205;-74
2021/03/31 07:24:00;;;;;;;14.87;6.10;;;10.40;1.00;;;14.29;59.84;98924.16;5032158;28;20209;-72
2021/03/31 07:26:28;;;;;;;12.93;5.67;;;10.50;1.00;;;14.52;58.26;98914.69;5036823;28;20202;-73
2021/03/31 07:28:57;;;;;;;18.97;5.97;;;10.60;1.00;;;14.69;57.45;98917.84;5035727;28;20319;-73
2021/03/31 07:31:27;;;;;;;15.70;5.77;;;10.80;1.00;;;14.50;58.50;98915.94;5033717;28;20662;-73
2021/03/31 07:34:16;;;;;;;17.10;6.37;;;10.90;1.00;;;14.68;58.72;98914.31;5041545;28;20214;-73
2021/03/31 07:36:46;;;;;;;13.10;5.20;;;11.00;1.00;;;14.94;56.75;98925.09;5036536;28;20788;-73
2021/03/31 07:39:13;;;;;;;19.17;5.30;;;11.10;1.00;;;15.01;56.58;98923.25;5049772;28;20635;-73
2021/03/31 07:41:41;;;;;;;14.83;5.83;;;11.20;1.00;;;15.19;56.23;98919.94;5052210;28;20209;-72
2021/03/31 07:44:16;;;;;;;12.37;6.17;;;11.20;1.00;;;15.41;53.41;98932.13;5052421;28;20237;-74
2021/03/31 07:46:46;;;;;;;16.73;6.27;;;11.50;1.00;;;15.75;52.85;98926.50;5043297;28;20265;-74
2021/03/31 07:49:14;;;;;;;13.70;5.73;;;11.60;1.00;;;15.28;52.62;98929.41;5041143;28;20234;-71
2021/03/31 07:51:55;;;;;;;13.60;5.57;;;11.90;1.00;;;15.45;53.65;98925.31;5044755;22;20287;-75
2021/03/31 07:54:22;;;;;;;17.00;5.70;;;11.90;1.00;;;15.97;51.22;98922.47;5010877;28;20199;-76
2021/03/31 07:56:49;;;;;;;14.70;5.83;;;12.10;1.00;;;16.19;50.85;98919.28;5008867;28;20424;-76
2021/03/31 07:59:18;;;;;;;18.90;5.93;;;12.20;1.00;;;15.49;52.27;98921.13;5014162;28;20222;-76
2021/03/31 08:01:49;;;;;;;16.47;6.23;;;12.40;1.00;;;16.36;49.76;98925.00;4999157;28;20543;-76
2021/03/31 08:04:19;;;;;;;15.20;6.07;;;12.50;1.00;;;16.55;48.50;98921.38;4995343;28;20235;-76
2021/03/31 08:06:47;;;;;;;11.40;5.97;;;12.70;1.00;;;16.55;49.72;98911.44;4992461;28;20580;-75
2021/03/31 08:09:22;;;;;;;10.03;5.97;;;12.90;1.00;;;16.97;47.21;98920.69;4993864;28;20224;-75
2021/03/31 08:12:05;;;;;;;17.17;6.37;;;13.10;1.00;;;16.90;46.83;98919.91;4993605;28;20221;-75
2021/03/31 08:14:44;;;;;;;12.37;5.90;;;13.30;1.00;;;16.43;48.37;98921.25;4991393;28;20209;-76
2021/03/31 08:17:14;;;;;;;13.13;6.10;;;13.30;1.00;;;16.14;50.88;98921.78;4993476;28;20215;-75
2021/03/31 08:19:44;;;;;;;21.53;6.57;;;13.30;1.00;;;16.57;48.01;98919.31;4991832;28;20211;-75
2021/03/31 08:22:33;;;;;;;12.83;6.80;;;13.50;1.00;;;16.28;48.70;98922.53;4992542;28;20280;-75
2021/03/31 08:25:11;;;;;;;17.43;6.20;;;13.50;1.00;;;16.79;46.73;98917.91;4997843;28;20255;-76
2021/03/31 08:27:55;;;;;;;20.67;6.77;;;13.60;1.00;;;17.24;46.22;98922.13;4998819;28;20668;-76
2021/03/31 08:30:23;;;;;;;13.30;6.23;;;13.80;1.00;;;16.85;46.56;98917.88;4995987;28;20691;-76
2021/03/31 08:32:50;;;;;;;19.03;6.70;;;13.90;1.00;;;17.15;46.01;98918.03;4997272;28;20225;-76
2021/03/31 08:35:17;;;;;;;16.47;6.20;;;14.00;1.00;;;17.59;44.83;98926.78;4997238;28;20207;-75
2021/03/31 08:37:46;;;;;;;15.37;6.33;;;14.20;1.00;;;17.39;45.21;98922.66;4992035;28;20206;-77
2021/03/31 08:40:13;;;;;;;15.93;6.30;;;14.40;1.00;;;16.99;45.36;98921.28;4992402;28;20303;-74
2021/03/31 08:42:49;;;;;;;11.00;5.70;;;14.40;1.00;;;18.00;43.02;98924.28;4990331;28;20580;-74
2021/03/31 08:45:29;;;;;;;15.23;6.40;;;14.60;1.00;;;17.61;44.57;98915.78;4992395;28;20238;-74
2021/03/31 08:47:58;;;;;;;12.60;7.00;;;14.70;1.00;;;17.38;44.98;98923.66;4989880;28;20687;-74
2021/03/31 08:50:34;;;;;;;18.03;5.83;;;14.70;1.00;;;17.81;43.88;98924.47;4994898;28;20262;-74
2021/03/31 08:53:05;;;;;;;17.20;6.40;;;14.90;1.00;;;18.23;42.73;98924.41;4989973;28;20247;-74
2021/03/31 08:55:35;;;;;;;13.23;6.40;;;15.00;1.00;;;17.92;44.55;98915.63;4991553;28;20251;-76
2021/03/31 08:58:07;;;;;;;14.87;6.23;;;15.20;1.00;;;18.68;41.76;98928.38;4991507;28;20209;-74
2021/03/31 09:00:46;;;;;;;14.10;6.23;;;15.40;1.00;;;19.05;39.96;98926.38;4992838;28;20626;-76
2021/03/31 09:03:14;;;;;;;14.97;6.00;;;15.60;1.00;;;18.59;41.12;98918.13;4991910;28;20214;-77
2021/03/31 09:05:53;;;;;;;22.97;6.77;;;15.80;1.00;;;19.12;39.86;98903.56;4992280;28;20209;-77
2021/03/31 09:08:23;;;;;;;18.07;6.80;;;15.90;1.00;;;19.75;38.35;98919.97;4993790;28;20233;-77
2021/03/31 09:10:55;;;;;;;15.67;6.57;;;16.20;1.00;;;19.05;39.57;98920.97;4992322;28;20229;-75
2021/03/31 09:13:26;;;;;;;21.63;7.57;;;16.30;1.00;;;18.81;40.14;98913.84;4996839;28;20273;-75
2021/03/31 09:15:55;;;;;;;18.20;6.73;;;16.10;1.00;;;18.87;40.23;98902.94;5002244;28;20204;-75
2021/03/31 09:18:22;;;;;;;17.53;6.67;;;16.20;1.00;;;18.99;40.99;98906.47;4998994;28;20199;-75
2021/03/31 09:20:49;;;;;;;12.23;6.40;;;16.30;1.00;;;19.17;40.08;98898.28;4998000;28;20324;-75
2021/03/31 09:23:25;;;;;;;11.50;5.93;;;16.40;1.00;;;19.89;38.84;98900.50;4992643;28;20294;-74
2021/03/31 09:26:00;;;;;;;17.13;6.67;;;16.70;1.00;;;19.48;39.98;98895.25;4991656;28;20211;-75
2021/03/31 09:28:28;;;;;;;14.57;5.93;;;16.80;1.00;;;20.26;38.34;98901.06;4991388;28;21747;-75
2021/03/31 09:31:02;;;;;;;20.10;6.27;;;17.00;1.00;;;20.71;37.43;98900.00;4996792;28;20313;-76
2021/03/31 09:33:32;;;;;;;16.27;6.63;;;17.30;1.00;;;20.93;36.38;98908.31;4994219;28;20218;-77
2021/03/31 09:36:15;;;;;;;13.23;6.33;;;17.60;1.00;;;20.28;37.49;98907.03;4996253;28;20221;-77
2021/03/31 09:38:42;;;;;;;15.87;6.80;;;17.70;1.00;;;19.97;38.00;98891.19;4997296;28;20311;-76
2021/03/31 09:41:08;;;;;;;16.30;6.63;;;17.50;1.00;;;20.01;39.13;98895.06;4994890;28;20607;-75
2021/03/31 09:43:36;;;;;;;18.37;6.43;;;17.50;1.00;;;19.99;39.12;98889.06;5000941;28;20211;-75
2021/03/31 09:46:03;;;;;;;15.70;6.40;;;17.50;1.00;;;20.06;38.32;98885.16;5000070;28;20208;-76
2021/03/31 09:48:31;;;;;;;14.13;6.47;;;17.50;1.00;;;20.52;37.54;98884.19;5002073;28;20228;-75
2021/03/31 09:50:58;;;;;;;15.47;6.03;;;17.60;1.00;;;20.53;37.60;98883.13;4991710;28;20238;-75
2021/03/31 09:53:25;;;;;;;12.23;6.20;;;17.80;1.00;;;20.78;36.91;98883.59;5000069;28;20211;-75
2021/03/31 09:55:53;;;;;;;13.67;6.90;;;18.00;1.00;;;20.49;37.06;98881.97;5000143;28;20208;-75
2021/03/31 09:58:24;;;;;;;26.53;6.93;;;18.00;1.00;;;20.87;36.84;98874.00;4995991;28;20216;-76
2021/03/31 10:00:52;;;;;;;15.03;7.00;;;18.10;1.00;;;21.27;36.41;98872.78;4995746;28;20216;-75
2021/03/31 10:03:19;;;;;;;15.77;6.60;;;18.30;1.00;;;21.43;36.50;98877.34;4994864;28;20250;-75
2021/03/31 10:05:47;;;;;;;14.37;5.77;;;18.50;1.00;;;21.31;36.45;98875.81;4995220;28;20208;-77
2021/03/31 10:08:21;;;;;;;14.40;5.90;;;18.70;1.00;;;22.18;35.12;98878.41;5001993;28;20290;-76
2021/03/31 10:10:50;;;;;;;15.87;6.47;;;18.90;1.00;;;22.15;34.83;98878.91;4994771;28;20235;-77
2021/03/31 10:13:19;;;;;;;15.43;6.83;;;19.10;1.00;;;22.34;33.93;98880.22;4997443;28;20232;-77
2021/03/31 10:15:56;;;;;;;14.47;6.23;;;19.30;1.00;;;21.83;34.40;98877.16;4996072;28;20290;-76
2021/03/31 10:18:23;;;;;;;11.47;6.63;;;19.30;1.00;;;21.94;34.92;98868.06;5003950;28;20286;-77
2021/03/31 10:20:51;;;;;;;13.77;6.83;;;19.30;1.00;;;22.73;33.17;98862.72;5001923;28;20788;-77
2021/03/31 10:23:30;;;;;;;16.00;6.97;;;19.50;1.00;;;22.93;32.71;98865.63;4994853;28;20220;-76
2021/03/31 10:26:18;;;;;;;10.07;6.00;;;19.60;1.00;;;22.84;32.92;98866.34;4998490;28;20204;-77
2021/03/31 10:28:44;;;;;;;11.77;5.77;;;19.50;1.00;;;22.71;33.37;98859.41;4999770;28;20223;-78
2021/03/31 10:31:24;;;;;;;13.07;5.90;;;19.70;1.00;;;22.46;33.69;98869.25;5002560;28;20228;-77
2021/03/31 10:33:51;;;;;;;17.60;6.07;;;19.80;1.00;;;23.04;32.99;98853.75;4995186;28;20210;-77
2021/03/31 10:36:45;;;;;;;13.33;6.40;;;20.00;1.00;;;22.89;33.03;98858.22;4994534;28;20249;-77
2021/03/31 10:50:51;;;;;;;13.83;5.93;;;20.30;1.00;;;23.15;32.60;98844.56;4987499;28;20291;-77
2021/03/31 10:53:19;;;;;;;10.87;6.33;;;20.40;1.00;;;23.69;31.35;98846.06;4993767;28;20760;-78
2021/03/31 10:55:46;;;;;;;14.13;6.40;;;20.60;1.00;;;23.12;31.79;98844.28;4995720;28;20207;-77